Time;durP1;ratioP1;P1;durP2;ratioP2;P2;SDS_P1;SDS_P2;PMS_P1;PMS_P2;Temp;Humidity;BMP_temperature;BMP_pressure;BME280_temperature;BME280_humidity;BME280_pressure;Samples;Min_cycle;Max_cycle;Signal;HPM_P1;HPM_P2
2022/03/01 00:01:12;;;;;;;28.17;20.30;;;;;;;-145.14;100.00;70583.66;4994884;28;20235;-71
2022/03/01 00:03:38;;;;;;;29.73;21.00;;;;;;;-145.14;100.00;70583.66;4990490;28;20577;-71
2022/03/01 00:06:04;;;;;;;28.17;19.63;;;;;;;-145.14;100.00;70583.66;4989466;28;20217;-71
2022/03/01 00:08:29;;;;;;;28.50;20.50;;;;;;;-145.14;100.00;70583.66;4994881;28;20197;-71
2022/03/01 00:10:54;;;;;;;31.43;20.77;;;;;;;-145.14;100.00;70583.66;4996977;28;20340;-71
2022/03/01 00:13:20;;;;;;;28.17;19.60;;;;;;;-145.14;100.00;70583.66;5001377;28;20677;-71
2022/03/01 00:15:45;;;;;;;26.77;20.30;;;;;;;-145.14;100.00;70583.66;4999315;28;20587;-71
2022/03/01 00:18:11;;;;;;;32.30;20.50;;;;;;;-145.14;100.00;70583.66;5000673;28;20658;-71
2022/03/01 00:20:36;;;;;;;28.80;19.80;;;;;;;-145.14;100.00;70583.66;4999189;28;20243;-70
2022/03/01 00:23:02;;;;;;;27.10;19.30;;;;;;;-145.14;100.00;70583.66;5000664;28;20915;-71
2022/03/01 00:25:28;;;;;;;29.20;19.77;;;;;;;-145.14;100.00;70583.66;4997293;28;20181;-71
2022/03/01 00:27:53;;;;;;;26.57;20.07;;;;;;;-145.14;100.00;70583.66;5000901;28;20840;-71
2022/03/01 00:30:19;;;;;;;30.57;21.80;;;;;;;-145.14;100.00;70583.66;5002177;28;20209;-71
2022/03/01 00:32:44;;;;;;;31.90;20.30;;;;;;;-145.14;100.00;70583.66;5000533;28;20848;-71
2022/03/01 00:35:10;;;;;;;27.43;19.33;;;;;;;-145.14;100.00;70583.66;4998892;28;20208;-71
2022/03/01 00:37:35;;;;;;;26.87;20.43;;;;;;;-145.14;100.00;70583.66;5000746;28;20679;-71
2022/03/01 00:40:01;;;;;;;28.93;19.17;;;;;;;-145.14;100.00;70583.66;4998278;28;20204;-71
2022/03/01 00:42:26;;;;;;;27.67;18.90;;;;;;;-145.14;100.00;70583.66;5001546;28;20193;-71
2022/03/01 00:44:52;;;;;;;26.50;18.10;;;;;;;-145.14;100.00;70583.66;4999959;28;20195;-71
2022/03/01 00:47:17;;;;;;;30.00;20.45;;;;;;;-145.14;100.00;70583.66;4999204;28;20271;-71
2022/03/01 00:49:43;;;;;;;29.20;19.50;;;;;;;-145.14;100.00;70583.66;5001545;28;20487;-71
2022/03/01 00:52:09;;;;;;;25.80;18.50;;;;;;;-145.14;100.00;70583.66;4998544;28;20299;-71
2022/03/01 00:54:34;;;;;;;26.80;18.77;;;;;;;-145.14;100.00;70583.66;5000637;28;20299;-71
2022/03/01 00:57:00;;;;;;;27.77;20.23;;;;;;;-145.14;100.00;70583.66;4997271;28;20196;-71
2022/03/01 00:59:25;;;;;;;26.10;17.83;;;;;;;-145.14;100.00;70583.66;4999566;28;20192;-71
2022/03/01 01:01:51;;;;;;;25.83;18.53;;;;;;;-145.14;100.00;70583.66;4996492;28;20224;-71
2022/03/01 01:04:16;;;;;;;27.00;18.60;;;;;;;-145.14;100.00;70583.66;5002129;28;20643;-71
2022/03/01 01:06:42;;;;;;;30.57;20.10;;;;;;;-145.14;100.00;70583.66;4997433;28;20208;-71
2022/03/01 01:09:08;;;;;;;36.53;20.57;;;;;;;-145.14;100.00;70583.66;5001020;28;20225;-71
2022/03/01 01:11:34;;;;;;;29.40;18.80;;;;;;;-145.14;100.00;70583.66;5000245;28;20299;-71
2022/03/01 01:13:59;;;;;;;31.23;20.97;;;;;;;-145.14;100.00;70583.66;4998076;28;20562;-71
2022/03/01 01:16:25;;;;;;;25.90;18.70;;;;;;;-145.14;100.00;70583.66;4998125;28;20192;-71
2022/03/01 01:18:50;;;;;;;29.80;19.63;;;;;;;-145.14;100.00;70583.66;5000119;28;20239;-70
2022/03/01 01:21:16;;;;;;;29.03;17.90;;;;;;;-145.14;100.00;70583.66;4997377;28;20208;-71
2022/03/01 01:23:44;;;;;;;26.67;17.87;;;;;;;-145.14;100.00;70583.66;4999416;28;20181;-71
2022/03/01 01:26:09;;;;;;;32.10;19.33;;;;;;;-145.14;100.00;70583.66;4996245;28;20661;-71
2022/03/01 01:28:35;;;;;;;28.80;19.30;;;;;;;-145.14;100.00;70583.66;5001843;28;20463;-71
2022/03/01 01:31:00;;;;;;;27.23;18.23;;;;;;;-145.14;100.00;70583.66;5000062;28;20213;-71
2022/03/01 01:33:26;;;;;;;29.00;19.57;;;;;;;-145.14;100.00;70583.66;5001166;28;20798;-70
2022/03/01 01:35:51;;;;;;;27.60;17.80;;;;;;;-145.14;100.00;70583.66;5003474;28;20188;-70
2022/03/01 01:38:16;;;;;;;26.70;18.63;;;;;;;-145.14;100.00;70583.66;4997283;28;20570;-70
2022/03/01 01:40:42;;;;;;;26.90;18.40;;;;;;;-145.14;100.00;70583.66;5000636;28;20213;-70
2022/03/01 01:43:07;;;;;;;28.70;18.57;;;;;;;-145.14;100.00;70583.66;5000912;28;20184;-70
2022/03/01 01:45:33;;;;;;;28.10;18.20;;;;;;;-145.14;100.00;70583.66;4998379;28;20640;-70
2022/03/01 01:48:01;;;;;;;27.10;17.67;;;;;;;-145.14;100.00;70583.66;4995837;28;20279;-70
2022/03/01 01:50:29;;;;;;;26.97;18.20;;;;;;;-145.14;100.00;70583.66;5000719;28;20463;-71
2022/03/01 01:52:55;;;;;;;30.50;17.77;;;;;;;-145.14;100.00;70583.66;5000109;28;20525;-71
2022/03/01 01:55:22;;;;;;;27.70;18.90;;;;;;;-145.14;100.00;70583.66;4999026;28;21076;-71
2022/03/01 01:57:48;;;;;;;28.10;18.90;;;;;;;-145.14;100.00;70583.66;4997418;28;20440;-70
2022/03/01 02:00:15;;;;;;;27.57;18.80;;;;;;;-145.14;100.00;70583.66;4999579;28;20442;-71
2022/03/01 02:02:41;;;;;;;27.70;18.80;;;;;;;-145.14;100.00;70583.66;4996285;28;20243;-71
2022/03/01 02:05:07;;;;;;;29.05;18.70;;;;;;;-145.14;100.00;70583.66;5001726;28;20481;-70
2022/03/01 02:07:34;;;;;;;27.07;19.03;;;;;;;-145.14;100.00;70583.66;4994866;28;20604;-70
2022/03/01 02:10:00;;;;;;;27.33;19.00;;;;;;;-145.14;100.00;70583.66;4995697;28;20963;-70
2022/03/01 02:12:26;;;;;;;26.27;17.80;;;;;;;-145.14;100.00;70583.66;4997660;28;21046;-70
2022/03/01 02:14:51;;;;;;;26.63;18.77;;;;;;;-145.14;100.00;70583.66;4998334;28;20495;-71
2022/03/01 02:17:18;;;;;;;30.60;19.23;;;;;;;-145.14;100.00;70583.66;5000486;28;20224;-70
2022/03/01 02:19:47;;;;;;;25.97;17.97;;;;;;;-145.14;100.00;70583.66;4995855;28;20188;-70
2022/03/01 02:22:13;;;;;;;24.77;17.30;;;;;;;-145.14;100.00;70583.66;5001455;28;20875;-71
2022/03/01 02:24:38;;;;;;;28.17;18.60;;;;;;;-145.14;100.00;70583.66;5002376;28;20448;-71
2022/03/01 02:27:05;;;;;;;25.67;17.67;;;;;;;-145.14;100.00;70583.66;4996580;28;20264;-70
2022/03/01 02:29:31;;;;;;;25.73;17.70;;;;;;;-145.14;100.00;70583.66;4999019;28;20239;-70
2022/03/01 02:31:59;;;;;;;27.33;18.13;;;;;;;-145.14;100.00;70583.66;4995157;28;20578;-71
2022/03/01 02:34:25;;;;;;;29.80;18.40;;;;;;;-145.14;100.00;70583.66;4998743;28;20467;-71
2022/03/01 02:36:51;;;;;;;24.37;16.20;;;;;;;-145.14;100.00;70583.66;4999632;28;20436;-70
2022/03/01 02:39:17;;;;;;;28.47;16.57;;;;;;;-145.14;100.00;70583.66;4997673;28;20843;-70
2022/03/01 02:41:45;;;;;;;24.90;16.97;;;;;;;-145.14;100.00;70583.66;4997702;28;20654;-70
2022/03/01 02:44:12;;;;;;;28.00;18.37;;;;;;;-145.14;100.00;70583.66;4997765;28;20466;-70
2022/03/01 02:46:38;;;;;;;27.50;16.73;;;;;;;-145.14;100.00;70583.66;4998985;28;20454;-71
2022/03/01 02:49:06;;;;;;;24.67;16.43;;;;;;;-145.14;100.00;70583.66;4998879;28;20443;-71
2022/03/01 02:51:32;;;;;;;27.57;18.43;;;;;;;-145.14;100.00;70583.66;4998710;28;20464;-70
2022/03/01 02:53:58;;;;;;;25.27;17.40;;;;;;;-145.14;100.00;70583.66;4996711;28;20490;-70
2022/03/01 02:56:23;;;;;;;25.10;18.00;;;;;;;-145.14;100.00;70583.66;4996753;28;20447;-71
2022/03/01 02:58:49;;;;;;;25.57;17.27;;;;;;;-145.14;100.00;70583.66;4996637;28;20201;-71
2022/03/01 03:01:15;;;;;;;26.67;18.37;;;;;;;-145.14;100.00;70583.66;5005294;23;20229;-73
2022/03/01 03:03:40;;;;;;;23.43;16.43;;;;;;;-145.14;100.00;70583.66;4995673;28;20188;-73
2022/03/01 03:06:06;;;;;;;24.10;16.50;;;;;;;-145.14;100.00;70583.66;4999667;28;20239;-73
2022/03/01 03:08:32;;;;;;;26.83;16.63;;;;;;;-145.14;100.00;70583.66;5001347;28;20200;-73
2022/03/01 03:10:57;;;;;;;27.07;17.03;;;;;;;-145.14;100.00;70583.66;4994077;28;20201;-73
2022/03/01 03:13:23;;;;;;;27.53;17.00;;;;;;;-145.14;100.00;70583.66;4995513;28;20454;-73
2022/03/01 03:15:49;;;;;;;28.37;16.73;;;;;;;-145.14;100.00;70583.66;4995591;28;20804;-73
2022/03/01 03:18:14;;;;;;;25.20;17.00;;;;;;;-145.14;100.00;70583.66;4993505;28;20502;-73
2022/03/01 03:20:40;;;;;;;23.73;17.00;;;;;;;-145.14;100.00;70583.66;4994719;28;20209;-73
2022/03/01 03:23:06;;;;;;;24.30;16.30;;;;;;;-145.14;100.00;70583.66;4995754;28;20216;-73
2022/03/01 03:25:32;;;;;;;24.80;17.20;;;;;;;-145.14;100.00;70583.66;4996357;28;20436;-74
2022/03/01 03:27:59;;;;;;;24.93;17.20;;;;;;;-145.14;100.00;70583.66;4995420;28;20435;-73
2022/03/01 03:30:25;;;;;;;23.40;17.00;;;;;;;-145.14;100.00;70583.66;4993960;28;20208;-73
2022/03/01 03:32:50;;;;;;;25.50;16.80;;;;;;;-145.14;100.00;70583.66;4992231;28;20951;-73
2022/03/01 03:35:15;;;;;;;23.93;16.43;;;;;;;-145.14;100.00;70583.66;4992285;28;20225;-73
2022/03/01 03:37:41;;;;;;;23.20;15.67;;;;;;;-145.14;100.00;70583.66;4996132;28;20185;-73
2022/03/01 03:40:07;;;;;;;24.17;16.80;;;;;;;-145.14;100.00;70583.66;4995383;28;20286;-73
2022/03/01 03:42:33;;;;;;;26.53;18.30;;;;;;;-145.14;100.00;70583.66;4991200;28;20211;-73
2022/03/01 03:44:59;;;;;;;24.67;15.90;;;;;;;-145.14;100.00;70583.66;4995167;28;20447;-73
2022/03/01 03:47:24;;;;;;;25.63;16.93;;;;;;;-145.14;100.00;70583.66;4993274;28;20197;-73
2022/03/01 03:49:50;;;;;;;25.83;16.23;;;;;;;-145.14;100.00;70583.66;4994616;28;20192;-74
2022/03/01 03:52:15;;;;;;;27.07;17.90;;;;;;;-145.14;100.00;70583.66;4991847;28;20223;-73
2022/03/01 03:54:40;;;;;;;26.87;17.03;;;;;;;-145.14;100.00;70583.66;4994246;28;20583;-73
2022/03/01 03:57:08;;;;;;;23.30;15.40;;;;;;;-145.14;100.00;70583.66;4992239;28;20203;-74
2022/03/01 03:59:38;;;;;;;24.03;15.37;;;;;;;-145.14;100.00;70583.66;4992011;28;20240;-74
2022/03/01 04:02:05;;;;;;;23.40;17.10;;;;;;;-145.14;100.00;70583.66;4987284;28;20558;-73
2022/03/01 04:04:31;;;;;;;26.80;16.80;;;;;;;-145.14;100.00;70583.66;4993370;28;20439;-74
2022/03/01 04:06:57;;;;;;;25.60;16.23;;;;;;;-145.14;100.00;70583.66;4991980;28;20443;-73
2022/03/01 04:09:23;;;;;;;22.60;15.50;;;;;;;-145.14;100.00;70583.66;4995344;28;20464;-74
2022/03/01 04:11:48;;;;;;;24.10;16.33;;;;;;;-145.14;100.00;70583.66;4994297;28;20709;-73
2022/03/01 04:14:13;;;;;;;22.40;16.27;;;;;;;-145.14;100.00;70583.66;4991804;28;20222;-73
2022/03/01 04:16:42;;;;;;;25.77;15.97;;;;;;;-145.14;100.00;70583.66;5007991;28;20181;-73
2022/03/01 04:19:09;;;;;;;25.07;15.80;;;;;;;-145.14;100.00;70583.66;4993747;28;20184;-73
2022/03/01 04:21:35;;;;;;;23.20;15.27;;;;;;;-145.14;100.00;70583.66;4991860;28;20966;-73
2022/03/01 04:24:00;;;;;;;22.60;16.07;;;;;;;-145.14;100.00;70583.66;4993585;28;20432;-74
2022/03/01 04:26:26;;;;;;;22.47;16.63;;;;;;;-145.14;100.00;70583.66;4990397;28;20450;-73
2022/03/01 04:28:52;;;;;;;23.30;15.30;;;;;;;-145.14;100.00;70583.66;4994556;28;20290;-74
2022/03/01 04:31:17;;;;;;;27.53;16.83;;;;;;;-145.14;100.00;70583.66;4993112;28;20214;-74
2022/03/01 04:33:43;;;;;;;21.27;15.07;;;;;;;-145.14;100.00;70583.66;4994031;28;20439;-73
2022/03/01 04:36:09;;;;;;;23.03;15.43;;;;;;;-145.14;100.00;70583.66;4990972;28;20248;-73
2022/03/01 04:38:35;;;;;;;23.80;16.70;;;;;;;-145.14;100.00;70583.66;4993593;28;20204;-73
2022/03/01 04:41:00;;;;;;;21.17;14.60;;;;;;;-145.14;100.00;70583.66;4993008;28;20271;-73
2022/03/01 04:43:26;;;;;;;22.17;15.30;;;;;;;-145.14;100.00;70583.66;4993771;28;20443;-73
2022/03/01 04:45:51;;;;;;;22.93;16.17;;;;;;;-145.14;100.00;70583.66;4994303;28;20185;-73
2022/03/01 04:48:17;;;;;;;25.20;16.40;;;;;;;-145.14;100.00;70583.66;4994693;28;20191;-73
2022/03/01 04:50:42;;;;;;;19.30;14.60;;;;;;;-145.14;100.00;70583.66;4993556;28;20544;-73
2022/03/01 04:53:08;;;;;;;24.23;15.67;;;;;;;-145.14;100.00;70583.66;4993224;28;20193;-73
2022/03/01 04:55:34;;;;;;;22.00;15.17;;;;;;;-145.14;100.00;70583.66;4990073;28;20212;-73
2022/03/01 04:58:00;;;;;;;23.33;16.03;;;;;;;-145.14;100.00;70583.66;4992719;28;20646;-73
2022/03/01 05:00:26;;;;;;;22.77;15.00;;;;;;;-145.14;100.00;70583.66;4989997;28;20251;-72
2022/03/01 05:02:52;;;;;;;22.13;15.60;;;;;;;-145.14;100.00;70583.66;4998183;28;20439;-73
2022/03/01 05:05:18;;;;;;;22.53;16.00;;;;;;;-145.14;100.00;70583.66;4992726;28;20295;-73
2022/03/01 05:07:46;;;;;;;25.57;15.77;;;;;;;-145.14;100.00;70583.66;4998663;28;20443;-73
2022/03/01 05:10:13;;;;;;;25.87;15.50;;;;;;;-145.14;100.00;70583.66;4998171;28;20550;-73
2022/03/01 05:12:43;;;;;;;20.73;14.10;;;;;;;-145.14;100.00;70583.66;4997091;28;20461;-73
2022/03/01 05:15:09;;;;;;;21.30;14.50;;;;;;;-145.14;100.00;70583.66;4993768;28;20480;-72
2022/03/01 05:17:35;;;;;;;22.20;14.60;;;;;;;-145.14;100.00;70583.66;5000164;28;20574;-74
2022/03/01 05:20:01;;;;;;;21.30;14.60;;;;;;;-145.14;100.00;70583.66;5000177;28;20526;-71
2022/03/01 05:22:27;;;;;;;21.10;15.40;;;;;;;-145.14;100.00;70583.66;5000419;28;20466;-72
2022/03/01 05:24:52;;;;;;;24.23;15.40;;;;;;;-145.14;100.00;70583.66;4995438;28;20221;-72
2022/03/01 05:27:18;;;;;;;21.50;14.80;;;;;;;-145.14;100.00;70583.66;4997608;28;20201;-73
2022/03/01 05:29:43;;;;;;;19.20;13.83;;;;;;;-145.14;100.00;70583.66;4996798;28;20236;-73
2022/03/01 05:32:08;;;;;;;23.80;16.70;;;;;;;-145.14;100.00;70583.66;4992725;28;20213;-73
2022/03/01 05:34:34;;;;;;;18.53;13.70;;;;;;;-145.14;100.00;70583.66;4994909;28;20627;-73
2022/03/01 05:36:59;;;;;;;19.10;13.97;;;;;;;-145.14;100.00;70583.66;4998968;28;20177;-72
2022/03/01 05:39:25;;;;;;;21.23;13.77;;;;;;;-145.14;100.00;70583.66;4995652;28;20808;-72
2022/03/01 05:41:50;;;;;;;22.40;15.33;;;;;;;-145.14;100.00;70583.66;4999854;28;20216;-72
2022/03/01 05:44:16;;;;;;;20.60;15.10;;;;;;;-145.14;100.00;70583.66;4994939;28;20193;-76
2022/03/01 05:46:41;;;;;;;19.27;14.90;;;;;;;-145.14;100.00;70583.66;4993536;28;20291;-77
2022/03/01 05:49:07;;;;;;;23.90;15.30;;;;;;;-145.14;100.00;70583.66;4996904;28;20181;-75
2022/03/01 05:51:33;;;;;;;18.43;13.93;;;;;;;-145.14;100.00;70583.66;4998046;28;20724;-75
2022/03/01 05:53:58;;;;;;;22.57;14.57;;;;;;;-145.14;100.00;70583.66;4997816;28;20574;-77
2022/03/01 05:56:24;;;;;;;20.80;15.30;;;;;;;-145.14;100.00;70583.66;4993868;28;20509;-79
2022/03/01 05:58:49;;;;;;;20.97;14.80;;;;;;;-145.14;100.00;70583.66;4997131;28;20575;-74
2022/03/01 06:01:15;;;;;;;20.43;13.30;;;;;;;-145.14;100.00;70583.66;4999369;28;20315;-72
2022/03/01 06:03:40;;;;;;;19.50;14.30;;;;;;;-145.14;100.00;70583.66;4994044;28;20288;-73
2022/03/01 06:06:06;;;;;;;21.33;14.90;;;;;;;-145.14;100.00;70583.66;5004346;28;20298;-73
2022/03/01 06:08:31;;;;;;;17.97;13.53;;;;;;;-145.14;100.00;70583.66;4997510;28;20254;-74
2022/03/01 06:10:56;;;;;;;19.87;14.00;;;;;;;-145.14;100.00;70583.66;4998068;28;20220;-73
2022/03/01 06:13:22;;;;;;;19.80;14.17;;;;;;;-145.14;100.00;70583.66;4997959;28;20189;-73
2022/03/01 06:15:48;;;;;;;25.20;14.23;;;;;;;-145.14;100.00;70583.66;4993806;28;20247;-73
2022/03/01 06:18:14;;;;;;;18.63;13.67;;;;;;;-145.14;100.00;70583.66;4987056;28;20185;-74
2022/03/01 06:20:40;;;;;;;18.40;12.53;;;;;;;-145.14;100.00;70583.66;4994239;28;20844;-73
2022/03/01 06:23:05;;;;;;;19.53;14.20;;;;;;;-145.14;100.00;70583.66;4984699;28;20466;-73
2022/03/01 06:25:31;;;;;;;20.03;15.07;;;;;;;-145.14;100.00;70583.66;4982143;28;20193;-73
2022/03/01 06:27:58;;;;;;;19.47;13.47;;;;;;;-145.14;100.00;70583.66;4989531;28;20240;-74
2022/03/01 06:30:23;;;;;;;20.27;14.00;;;;;;;-145.14;100.00;70583.66;5001757;28;20209;-74
2022/03/01 06:32:49;;;;;;;18.80;13.37;;;;;;;-145.14;100.00;70583.66;4986893;28;20444;-74
2022/03/01 06:35:14;;;;;;;19.93;13.70;;;;;;;-145.14;100.00;70583.66;4989302;28;20212;-74
2022/03/01 06:37:40;;;;;;;20.10;13.80;;;;;;;-145.14;100.00;70583.66;4987597;28;20193;-74
2022/03/01 06:40:07;;;;;;;21.27;13.30;;;;;;;-145.14;100.00;70583.66;4987350;28;20231;-73
2022/03/01 06:42:32;;;;;;;18.60;13.43;;;;;;;-145.14;100.00;70583.66;4990374;28;20463;-74
2022/03/01 06:44:58;;;;;;;22.70;13.97;;;;;;;-145.14;100.00;70583.66;4988218;28;20453;-74
2022/03/01 06:47:24;;;;;;;19.00;13.97;;;;;;;-145.14;100.00;70583.66;4984616;28;20451;-74
2022/03/01 06:49:49;;;;;;;20.43;14.07;;;;;;;-145.14;100.00;70583.66;4983773;28;20189;-73
2022/03/01 06:52:14;;;;;;;20.80;14.57;;;;;;;-145.14;100.00;70583.66;4982170;28;20744;-74
2022/03/01 06:54:40;;;;;;;20.60;13.00;;;;;;;-145.14;100.00;70583.66;4988929;28;20635;-74
2022/03/01 06:57:06;;;;;;;21.67;14.20;;;;;;;-145.14;100.00;70583.66;4989242;28;20677;-74
2022/03/01 06:59:31;;;;;;;19.53;13.63;;;;;;;-145.14;100.00;70583.66;4982312;28;20189;-74
2022/03/01 07:01:57;;;;;;;18.77;13.90;;;;;;;-145.14;100.00;70583.66;4989280;28;20978;-74
2022/03/01 07:04:22;;;;;;;16.90;12.40;;;;;;;-145.14;100.00;70583.66;4993123;28;20759;-74
2022/03/01 07:06:48;;;;;;;21.33;14.23;;;;;;;-145.14;100.00;70583.66;4987072;28;20216;-74
2022/03/01 07:09:14;;;;;;;20.93;14.63;;;;;;;-145.14;100.00;70583.66;4986974;28;21191;-74
2022/03/01 07:11:40;;;;;;;18.57;13.43;;;;;;;-145.14;100.00;70583.66;4986896;28;20239;-74
2022/03/01 07:14:05;;;;;;;20.13;12.63;;;;;;;-145.14;100.00;70583.66;4990950;28;20555;-73
2022/03/01 07:16:31;;;;;;;19.27;13.90;;;;;;;-145.14;100.00;70583.66;4983274;28;20195;-73
2022/03/01 07:18:56;;;;;;;21.07;14.07;;;;;;;-145.14;100.00;70583.66;4988826;28;20196;-73
2022/03/01 07:21:22;;;;;;;20.07;14.43;;;;;;;-145.14;100.00;70583.66;4986435;28;21174;-73
2022/03/01 07:23:50;;;;;;;18.73;12.93;;;;;;;-145.14;100.00;70583.66;4989754;28;20189;-73
2022/03/01 07:26:16;;;;;;;20.77;13.90;;;;;;;-145.14;100.00;70583.66;4985326;28;20189;-73
2022/03/01 07:28:41;;;;;;;20.73;15.10;;;;;;;-145.14;100.00;70583.66;4979244;28;20959;-74
2022/03/01 07:31:07;;;;;;;18.80;13.03;;;;;;;-145.14;100.00;70583.66;5002983;28;20820;-73
2022/03/01 07:33:33;;;;;;;19.43;13.63;;;;;;;-145.14;100.00;70583.66;4991138;28;20197;-73
2022/03/01 07:36:00;;;;;;;20.50;14.30;;;;;;;-145.14;100.00;70583.66;4990408;28;20535;-74
2022/03/01 07:38:26;;;;;;;20.27;14.13;;;;;;;-145.14;100.00;70583.66;4983764;28;20182;-74
2022/03/01 07:40:52;;;;;;;19.10;14.00;;;;;;;-145.14;100.00;70583.66;5002158;28;20464;-74
2022/03/01 07:43:17;;;;;;;16.53;12.80;;;;;;;-145.14;100.00;70583.66;4990355;28;20448;-74
2022/03/01 07:45:43;;;;;;;18.97;13.17;;;;;;;-145.14;100.00;70583.66;4985548;28;20189;-74
2022/03/01 07:48:10;;;;;;;17.27;13.30;;;;;;;-145.14;100.00;70583.66;4985988;28;20199;-74
2022/03/01 07:50:36;;;;;;;19.70;14.17;;;;;;;-145.14;100.00;70583.66;4989190;28;20213;-74
2022/03/01 07:53:02;;;;;;;18.27;13.73;;;;;;;-145.14;100.00;70583.66;4987968;28;20527;-74
2022/03/01 07:55:29;;;;;;;16.70;12.43;;;;;;;-145.14;100.00;70583.66;4980441;28;20571;-74
2022/03/01 07:57:55;;;;;;;18.43;13.33;;;;;;;-145.14;100.00;70583.66;4986192;28;20551;-74
2022/03/01 08:00:24;;;;;;;18.63;13.23;;;;;;;-145.14;100.00;70583.66;4981643;28;21058;-74
2022/03/01 08:02:52;;;;;;;18.00;12.97;;;;;;;-145.14;100.00;70583.66;4981492;28;20191;-74
2022/03/01 08:05:17;;;;;;;18.97;14.00;;;;;;;-145.14;100.00;70583.66;4984354;28;20782;-74
2022/03/01 08:07:43;;;;;;;17.60;12.43;;;;;;;-145.14;100.00;70583.66;4987196;28;20448;-74
2022/03/01 08:10:08;;;;;;;19.83;13.97;;;;;;;-145.14;100.00;70583.66;4989679;28;20201;-74
2022/03/01 08:12:34;;;;;;;17.30;13.33;;;;;;;-145.14;100.00;70583.66;4989927;28;20301;-76
2022/03/01 08:14:59;;;;;;;17.47;13.23;;;;;;;-145.14;100.00;70583.66;4991964;28;20717;-75
2022/03/01 08:17:25;;;;;;;17.57;12.63;;;;;;;-145.14;100.00;70583.66;4988534;28;20185;-76
2022/03/01 08:19:50;;;;;;;17.20;12.67;;;;;;;-145.14;100.00;70583.66;4991962;28;20193;-76
2022/03/01 08:22:16;;;;;;;20.57;14.30;;;;;;;-145.14;100.00;70583.66;4989649;28;20228;-76
2022/03/01 08:24:42;;;;;;;14.60;12.10;;;;;;;-145.14;100.00;70583.66;4987998;28;20196;-76
2022/03/01 08:27:07;;;;;;;18.30;13.53;;;;;;;-145.14;100.00;70583.66;5001724;28;20187;-75
2022/03/01 08:29:34;;;;;;;17.70;13.50;;;;;;;-145.14;100.00;70583.66;4992515;28;20192;-76
2022/03/01 08:31:59;;;;;;;17.67;13.00;;;;;;;-145.14;100.00;70583.66;4991262;28;20207;-76
2022/03/01 08:34:25;;;;;;;17.43;13.73;;;;;;;-145.14;100.00;70583.66;4986901;28;20468;-76
2022/03/01 08:36:51;;;;;;;17.43;13.00;;;;;;;-145.14;100.00;70583.66;4987904;28;20200;-75
2022/03/01 08:39:16;;;;;;;17.53;13.33;;;;;;;-145.14;100.00;70583.66;4989185;28;20543;-76
2022/03/01 08:41:42;;;;;;;18.27;12.77;;;;;;;-145.14;100.00;70583.66;4991015;28;20296;-76
2022/03/01 08:44:08;;;;;;;16.80;12.30;;;;;;;-145.14;100.00;70583.66;4990934;28;20185;-75
2022/03/01 08:46:34;;;;;;;20.03;12.90;;;;;;;-145.14;100.00;70583.66;4988419;28;20185;-76
2022/03/01 08:48:59;;;;;;;18.50;13.30;;;;;;;-145.14;100.00;70583.66;4988039;28;20455;-76
2022/03/01 08:51:25;;;;;;;17.13;12.50;;;;;;;-145.14;100.00;70583.66;4990023;28;20663;-76
2022/03/01 08:53:52;;;;;;;19.40;12.93;;;;;;;-145.14;100.00;70583.66;4993595;28;20280;-76
2022/03/01 08:56:19;;;;;;;17.20;12.83;;;;;;;-145.14;100.00;70583.66;4986940;28;20509;-76
2022/03/01 08:58:46;;;;;;;17.30;12.70;;;;;;;-145.14;100.00;70583.66;4984973;28;20475;-76
2022/03/01 09:01:12;;;;;;;20.73;12.30;;;;;;;-145.14;100.00;70583.66;5004547;23;20747;-67
2022/03/01 09:03:38;;;;;;;16.40;12.40;;;;;;;-145.14;100.00;70583.66;5001491;28;20450;-68
2022/03/01 09:06:05;;;;;;;18.37;12.63;;;;;;;-145.14;100.00;70583.66;5010369;28;20446;-68
2022/03/01 09:08:32;;;;;;;14.80;11.17;;;;;;;-145.14;100.00;70583.66;5006721;28;20439;-68
2022/03/01 09:10:58;;;;;;;18.57;12.80;;;;;;;-145.14;100.00;70583.66;5009633;28;20465;-67
2022/03/01 09:13:24;;;;;;;16.70;12.20;;;;;;;-145.14;100.00;70583.66;5028326;28;20454;-68
2022/03/01 09:15:49;;;;;;;15.90;12.73;;;;;;;-145.14;100.00;70583.66;5024566;28;20495;-68
2022/03/01 09:18:15;;;;;;;18.00;13.00;;;;;;;-145.14;100.00;70583.66;5016671;28;20282;-68
2022/03/01 09:20:40;;;;;;;19.57;12.80;;;;;;;-145.14;100.00;70583.66;5020217;28;20274;-68
2022/03/01 09:23:06;;;;;;;19.00;13.40;;;;;;;-145.14;100.00;70583.66;5018430;28;20294;-68
2022/03/01 09:25:31;;;;;;;18.20;12.70;;;;;;;-145.14;100.00;70583.66;5017539;28;20179;-68
2022/03/01 09:27:57;;;;;;;21.40;13.80;;;;;;;-145.14;100.00;70583.66;5018103;28;20212;-68
2022/03/01 09:30:23;;;;;;;19.67;14.40;;;;;;;-145.14;100.00;70583.66;5024621;28;20792;-68
2022/03/01 09:32:48;;;;;;;20.50;13.90;;;;;;;-145.14;100.00;70583.66;5021490;28;20216;-68
2022/03/01 09:35:17;;;;;;;15.27;12.63;;;;;;;-145.14;100.00;70583.66;5022316;28;20215;-68
2022/03/01 09:37:43;;;;;;;20.00;12.60;;;;;;;-145.14;100.00;70583.66;5017187;28;20294;-68
2022/03/01 09:40:11;;;;;;;20.40;12.87;;;;;;;-145.14;100.00;70583.66;5019066;28;20448;-68
2022/03/01 09:42:37;;;;;;;16.30;12.37;;;;;;;-145.14;100.00;70583.66;5021320;28;20330;-68
2022/03/01 09:45:04;;;;;;;24.47;13.07;;;;;;;-145.14;100.00;70583.66;5017282;28;20446;-68
2022/03/01 09:47:30;;;;;;;19.20;13.37;;;;;;;-145.14;100.00;70583.66;5026867;28;20894;-68
2022/03/01 09:49:56;;;;;;;18.90;12.20;;;;;;;-145.14;100.00;70583.66;5024151;28;20503;-68
2022/03/01 09:52:22;;;;;;;17.20;11.77;;;;;;;-145.14;100.00;70583.66;5025174;28;20519;-68
2022/03/01 09:54:52;;;;;;;15.97;12.37;;;;;;;-145.14;100.00;70583.66;5027411;28;20223;-68
2022/03/01 09:57:19;;;;;;;17.83;11.97;;;;;;;-145.14;100.00;70583.66;5020224;28;21078;-68
2022/03/01 09:59:45;;;;;;;16.20;12.13;;;;;;;-145.14;100.00;70583.66;5022383;28;20452;-68
2022/03/01 10:02:10;;;;;;;16.77;12.23;;;;;;;-145.14;100.00;70583.66;5025545;28;20474;-68
2022/03/01 10:04:57;;;;;;;17.40;12.97;;;;;;;-145.14;100.00;70583.66;5023216;28;20866;-69
2022/03/01 10:07:24;;;;;;;17.70;12.90;;;;;;;-145.14;100.00;70583.66;5028668;28;20191;-68
2022/03/01 10:09:49;;;;;;;15.87;12.07;;;;;;;-145.14;100.00;70583.66;5025192;28;20452;-68
2022/03/01 10:12:25;;;;;;;16.97;12.63;;;;;;;-145.14;100.00;70583.66;5028377;28;20462;-68
2022/03/01 10:15:04;;;;;;;14.93;12.20;;;;;;;-145.14;100.00;70583.66;5027725;28;20211;-68
2022/03/01 10:17:48;;;;;;;17.23;12.10;;;;;;;-145.14;100.00;70583.66;5013530;28;20804;-68
2022/03/01 10:20:18;;;;;;;18.97;13.17;;;;;;;-145.14;100.00;70583.66;5022638;28;20803;-68
2022/03/01 10:22:49;;;;;;;18.17;12.70;;;;;;;-145.14;100.00;70583.66;5026476;28;20617;-68
2022/03/01 10:25:16;;;;;;;17.90;12.87;;;;;;;-145.14;100.00;70583.66;5025797;28;20930;-68
2022/03/01 10:27:44;;;;;;;17.90;13.60;;;;;;;-145.14;100.00;70583.66;5029566;28;20544;-68
2022/03/01 10:30:10;;;;;;;18.17;13.23;;;;;;;-145.14;100.00;70583.66;5024710;28;20852;-68
2022/03/01 10:32:36;;;;;;;18.97;13.10;;;;;;;-145.14;100.00;70583.66;5025676;28;20502;-68
2022/03/01 10:35:11;;;;;;;17.43;12.53;;;;;;;-145.14;100.00;70583.66;5018192;28;20558;-68
2022/03/01 10:37:39;;;;;;;19.57;14.17;;;;;;;-145.14;100.00;70583.66;5026473;28;20278;-68
2022/03/01 10:40:15;;;;;;;18.20;13.80;;;;;;;-145.14;100.00;70583.66;5018204;28;20533;-68
2022/03/01 10:42:41;;;;;;;18.00;14.00;;;;;;;-145.14;100.00;70583.66;5025214;28;20626;-68
2022/03/01 10:45:12;;;;;;;17.10;12.97;;;;;;;-145.14;100.00;70583.66;5021325;28;20504;-68
2022/03/01 10:47:38;;;;;;;19.70;13.50;;;;;;;-145.14;100.00;70583.66;5025526;28;20553;-68
2022/03/01 10:50:09;;;;;;;16.03;12.30;;;;;;;-145.14;100.00;70583.66;5022161;28;20919;-68